Time;durP1;ratioP1;P1;durP2;ratioP2;P2;SDS_P1;SDS_P2;PMS_P1;PMS_P2;Temp;Humidity;BMP_temperature;BMP_pressure;BME280_temperature;BME280_humidity;BME280_pressure;Samples;Min_cycle;Max_cycle;Signal;HPM_P1;HPM_P2
2023/08/09 02:01:20;;;;;;;7.75;2.15;;;;;;;;;;4694685;27;20507;-79
2023/08/09 02:03:47;;;;;;;2.45;2.25;;;;;;;;;;4311915;33;20070;-80
2023/08/09 02:06:13;;;;;;;5.12;1.92;;;;;;;;;;4313070;33;20048;-81
2023/08/09 02:08:41;;;;;;;1.95;1.85;;;;;;;;;;4311637;33;20079;-80
2023/08/09 02:11:07;;;;;;;3.62;1.98;;;;;;;;;;4309504;33;20041;-79
2023/08/09 02:13:34;;;;;;;2.53;2.05;;;;;;;;;;4312693;33;20829;-80
2023/08/09 02:16:03;;;;;;;4.68;3.42;;;;;;;;;;4312762;33;20444;-81
2023/08/09 02:18:30;;;;;;;4.18;2.17;;;;;;;;;;4311248;33;20067;-80
2023/08/09 02:20:58;;;;;;;3.62;2.40;;;;;;;;;;4312560;33;20036;-81
2023/08/09 02:23:25;;;;;;;2.20;2.10;;;;;;;;;;4309315;33;20045;-81
2023/08/09 02:25:55;;;;;;;2.55;2.33;;;;;;;;;;4312166;33;20048;-82
2023/08/09 02:28:21;;;;;;;2.55;2.20;;;;;;;;;;4311236;33;20041;-80
2023/08/09 02:30:49;;;;;;;2.10;1.90;;;;;;;;;;4311235;33;20056;-80
2023/08/09 02:33:16;;;;;;;4.65;2.47;;;;;;;;;;4293920;33;20444;-81
2023/08/09 02:35:53;;;;;;;3.20;2.17;;;;;;;;;;4295277;33;20040;-81
2023/08/09 02:38:21;;;;;;;2.28;2.17;;;;;;;;;;4294180;33;20041;-80
2023/08/09 02:40:49;;;;;;;3.08;2.80;;;;;;;;;;4294528;33;20074;-81
2023/08/09 02:43:16;;;;;;;3.62;2.17;;;;;;;;;;4294425;33;20033;-84
2023/08/09 02:45:43;;;;;;;2.95;2.72;;;;;;;;;;4293554;33;20319;-79
2023/08/09 02:48:10;;;;;;;3.92;2.83;;;;;;;;;;4280382;33;20431;-81
2023/08/09 02:50:37;;;;;;;6.07;2.60;;;;;;;;;;4281961;33;20054;-80
2023/08/09 02:53:03;;;;;;;7.45;3.22;;;;;;;;;;4280651;33;20059;-84
2023/08/09 02:55:31;;;;;;;5.82;3.12;;;;;;;;;;4278816;33;20071;-80
2023/08/09 02:57:57;;;;;;;2.95;2.65;;;;;;;;;;4280189;33;20369;-79
2023/08/09 03:00:24;;;;;;;5.07;2.42;;;;;;;;;;4280883;33;20045;-81
2023/08/09 03:02:50;;;;;;;3.42;2.50;;;;;;;;;;4281291;33;20126;-80
2023/08/09 03:05:16;;;;;;;4.85;3.12;;;;;;;;;;4279124;33;20063;-85
2023/08/09 03:07:48;;;;;;;5.93;2.85;;;;;;;;;;4281368;33;20107;-81
2023/08/09 03:10:15;;;;;;;3.35;2.95;;;;;;;;;;4280688;33;20042;-80
2023/08/09 03:12:41;;;;;;;6.50;3.25;;;;;;;;;;4281789;33;20030;-80
2023/08/09 03:15:08;;;;;;;7.22;3.80;;;;;;;;;;4280457;33;20142;-82
2023/08/09 03:17:34;;;;;;;7.62;3.40;;;;;;;;;;4279668;33;20034;-81
2023/08/09 03:20:08;;;;;;;5.00;3.47;;;;;;;;;;4296295;33;20731;-81
2023/08/09 03:22:34;;;;;;;10.00;2.95;;;;;;;;;;4280196;33;20079;-81
2023/08/09 03:25:04;;;;;;;4.47;2.67;;;;;;;;;;4278978;33;20079;-82
2023/08/09 03:27:31;;;;;;;5.57;2.67;;;;;;;;;;4279906;33;20055;-81
2023/08/09 03:29:59;;;;;;;6.07;2.72;;;;;;;;;;4277514;33;20300;-81
2023/08/09 03:32:25;;;;;;;4.72;3.20;;;;;;;;;;4251000;33;20372;-80
2023/08/09 03:34:52;;;;;;;5.87;3.85;;;;;;;;;;4237174;33;20072;-82
2023/08/09 03:37:19;;;;;;;4.03;2.53;;;;;;;;;;4235986;33;20038;-82
2023/08/09 03:39:51;;;;;;;4.18;2.67;;;;;;;;;;4222636;34;20294;-81
2023/08/09 03:42:19;;;;;;;9.63;2.60;;;;;;;;;;4223379;34;20047;-80
2023/08/09 03:44:46;;;;;;;3.15;2.53;;;;;;;;;;4222790;34;20207;-81
2023/08/09 03:47:12;;;;;;;2.45;2.25;;;;;;;;;;4224030;34;20088;-82
2023/08/09 03:49:38;;;;;;;4.10;2.40;;;;;;;;;;4193651;34;20526;-80
2023/08/09 03:52:06;;;;;;;7.35;2.22;;;;;;;;;;4196223;34;20081;-81
2023/08/09 03:54:33;;;;;;;4.05;2.17;;;;;;;;;;4183721;34;20107;-79
2023/08/09 03:56:59;;;;;;;10.50;2.37;;;;;;;;;;4181986;34;20069;-80
2023/08/09 03:59:25;;;;;;;3.37;2.33;;;;;;;;;;4182746;34;20181;-81
2023/08/09 04:01:51;;;;;;;2.40;2.20;;;;;;;;;;4180151;34;20075;-81
2023/08/09 04:04:18;;;;;;;3.90;2.60;;;;;;;;;;4193396;34;20077;-80
2023/08/09 04:06:44;;;;;;;4.53;3.37;;;;;;;;;;4218794;34;20035;-80
2023/08/09 04:09:12;;;;;;;3.78;2.10;;;;;;;;;;4196289;34;20040;-82
2023/08/09 04:11:38;;;;;;;2.37;2.17;;;;;;;;;;4212325;34;20169;-82
2023/08/09 04:14:05;;;;;;;2.97;2.28;;;;;;;;;;4221460;33;20058;-79
2023/08/09 04:16:31;;;;;;;2.87;2.28;;;;;;;;;;4226557;33;20322;-80
2023/08/09 04:18:57;;;;;;;4.47;2.60;;;;;;;;;;4226233;33;20078;-80
2023/08/09 04:21:24;;;;;;;4.05;2.17;;;;;;;;;;4261835;33;20046;-79
2023/08/09 04:23:50;;;;;;;2.40;2.22;;;;;;;;;;4268040;33;20049;-80
2023/08/09 04:26:23;;;;;;;2.15;2.00;;;;;;;;;;4268940;33;20177;-81
2023/08/09 04:28:50;;;;;;;5.47;2.33;;;;;;;;;;4267197;33;20072;-80
2023/08/09 04:31:16;;;;;;;2.45;2.25;;;;;;;;;;4267364;33;20037;-81
2023/08/09 04:33:49;;;;;;;3.45;2.25;;;;;;;;;;4268249;33;20481;-80
2023/08/09 04:36:21;;;;;;;3.35;2.00;;;;;;;;;;4268256;33;20071;-80
2023/08/09 04:38:48;;;;;;;3.58;2.25;;;;;;;;;;4268761;33;20516;-79
2023/08/09 04:41:13;;;;;;;21.98;2.75;;;;;;;;;;4308345;33;20312;-80
2023/08/09 04:43:42;;;;;;;7.28;2.22;;;;;;;;;;4314102;33;20106;-80
2023/08/09 04:46:10;;;;;;;3.83;2.90;;;;;;;;;;4311794;33;20528;-80
2023/08/09 04:48:40;;;;;;;3.22;2.42;;;;;;;;;;4313714;33;20049;-81
2023/08/09 04:51:07;;;;;;;3.78;2.20;;;;;;;;;;4312580;33;20029;-81
2023/08/09 04:53:33;;;;;;;12.95;2.53;;;;;;;;;;4312580;33;20070;-82
2023/08/09 04:55:59;;;;;;;3.03;2.75;;;;;;;;;;4311413;33;20045;-82
2023/08/09 04:58:25;;;;;;;3.22;2.55;;;;;;;;;;4310072;33;20048;-82
2023/08/09 05:00:52;;;;;;;8.00;2.45;;;;;;;;;;4311230;33;20087;-80
2023/08/09 05:03:18;;;;;;;3.33;2.67;;;;;;;;;;4309821;33;20066;-81
2023/08/09 05:05:44;;;;;;;4.72;2.30;;;;;;;;;;4310370;33;20370;-82
2023/08/09 05:08:10;;;;;;;5.47;2.20;;;;;;;;;;4310338;33;20036;-85
2023/08/09 05:10:36;;;;;;;3.67;2.10;;;;;;;;;;4309972;33;20297;-82
2023/08/09 05:13:02;;;;;;;2.58;2.15;;;;;;;;;;4296606;33;20045;-82
2023/08/09 05:15:29;;;;;;;7.72;2.15;;;;;;;;;;4283203;33;20059;-81
2023/08/09 05:17:55;;;;;;;2.12;1.90;;;;;;;;;;4282691;33;20161;-81
2023/08/09 05:20:21;;;;;;;5.72;2.58;;;;;;;;;;4294615;33;20025;-82
2023/08/09 05:22:48;;;;;;;3.42;2.22;;;;;;;;;;4296546;33;20827;-82
2023/08/09 05:25:14;;;;;;;4.20;2.17;;;;;;;;;;4296842;33;20033;-80
2023/08/09 05:27:40;;;;;;;3.75;2.37;;;;;;;;;;4294594;33;20056;-80
2023/08/09 05:30:07;;;;;;;7.45;2.20;;;;;;;;;;4291304;33;20055;-81
2023/08/09 05:32:33;;;;;;;5.65;2.12;;;;;;;;;;4295005;33;20040;-81
2023/08/09 05:34:59;;;;;;;2.87;2.05;;;;;;;;;;4281185;33;20396;-81
2023/08/09 05:37:26;;;;;;;2.65;1.90;;;;;;;;;;4281610;33;20490;-82
2023/08/09 05:39:52;;;;;;;2.35;2.08;;;;;;;;;;4282024;33;20022;-81
2023/08/09 05:42:18;;;;;;;5.37;2.22;;;;;;;;;;4280648;33;20078;-80
2023/08/09 05:44:44;;;;;;;5.00;2.78;;;;;;;;;;4269270;33;20075;-85
2023/08/09 05:47:10;;;;;;;9.07;3.15;;;;;;;;;;4267051;33;20076;-81
2023/08/09 05:49:36;;;;;;;3.15;1.98;;;;;;;;;;4266737;33;20042;-81
2023/08/09 05:52:03;;;;;;;7.35;2.30;;;;;;;;;;4267064;33;20045;-82
2023/08/09 05:54:29;;;;;;;3.92;2.00;;;;;;;;;;4267506;33;20158;-80
2023/08/09 05:56:55;;;;;;;4.65;2.30;;;;;;;;;;4266331;33;20037;-83
2023/08/09 05:59:22;;;;;;;3.92;1.70;;;;;;;;;;4276889;33;20046;-80
2023/08/09 06:01:49;;;;;;;2.37;1.62;;;;;;;;;;4280741;33;20053;-80
2023/08/09 06:04:15;;;;;;;3.17;2.00;;;;;;;;;;4280281;33;20075;-81
2023/08/09 06:06:42;;;;;;;3.30;1.95;;;;;;;;;;4303019;33;20370;-80
2023/08/09 06:09:09;;;;;;;2.03;1.92;;;;;;;;;;4309000;33;20036;-82
2023/08/09 06:11:35;;;;;;;4.70;2.30;;;;;;;;;;4307974;33;20106;-82
2023/08/09 06:14:01;;;;;;;2.72;2.10;;;;;;;;;;4310137;33;20454;-81
2023/08/09 06:16:28;;;;;;;2.97;2.12;;;;;;;;;;4308362;33;20055;-80
2023/08/09 06:18:54;;;;;;;2.45;2.22;;;;;;;;;;4309771;33;20461;-82
2023/08/09 06:21:20;;;;;;;2.60;2.50;;;;;;;;;;4307389;33;20055;-82
2023/08/09 06:23:46;;;;;;;2.45;2.00;;;;;;;;;;4309150;33;20036;-81
2023/08/09 06:26:12;;;;;;;5.75;2.30;;;;;;;;;;4309665;33;20085;-81
2023/08/09 06:28:38;;;;;;;13.80;2.03;;;;;;;;;;4309852;33;20090;-81
2023/08/09 06:31:05;;;;;;;1.70;1.60;;;;;;;;;;4308866;33;20041;-81
2023/08/09 06:33:34;;;;;;;4.35;1.73;;;;;;;;;;4308593;33;20070;-81
2023/08/09 06:36:00;;;;;;;10.98;1.55;;;;;;;;;;4309437;33;20305;-81
2023/08/09 06:38:26;;;;;;;1.85;1.70;;;;;;;;;;4309163;33;20040;-81
2023/08/09 06:40:53;;;;;;;1.83;1.42;;;;;;;;;;4309118;33;20048;-83
2023/08/09 06:43:19;;;;;;;2.67;1.77;;;;;;;;;;4308617;33;20058;-79
2023/08/09 06:45:48;;;;;;;6.20;1.60;;;;;;;;;;4306788;33;20040;-81
2023/08/09 06:48:14;;;;;;;4.60;1.95;;;;;;;;;;4308961;33;20040;-79
2023/08/09 06:50:41;;;;;;;2.03;1.60;;;;;;;;;;4310032;33;20037;-80
2023/08/09 06:53:08;;;;;;;2.10;1.90;;;;;;;;;;4309559;33;20104;-80
2023/08/09 06:55:34;;;;;;;1.62;1.52;;;;;;;;;;4308404;33;20045;-81
2023/08/09 06:58:00;;;;;;;2.20;1.52;;;;;;;;;;4307392;33;20433;-84
2023/08/09 07:00:26;;;;;;;1.60;1.40;;;;;;;;;;4309933;33;20803;-80
2023/08/09 07:02:53;;;;;;;1.15;1.10;;;;;;;;;;4308419;33;20435;-80
2023/08/09 07:05:19;;;;;;;3.47;2.20;;;;;;;;;;4310108;33;20487;-79
2023/08/09 07:07:45;;;;;;;7.53;1.52;;;;;;;;;;4310301;33;20060;-84
2023/08/09 07:10:12;;;;;;;3.92;1.90;;;;;;;;;;4311505;33;20396;-80
2023/08/09 07:12:38;;;;;;;8.40;1.67;;;;;;;;;;4311144;33;20425;-80
2023/08/09 07:15:08;;;;;;;1.87;1.62;;;;;;;;;;4311959;33;20063;-80
2023/08/09 07:20:11;;;;;;;2.33;1.42;;;;;;;;;;4292529;33;20080;-80
2023/08/09 07:22:38;;;;;;;1.50;1.40;;;;;;;;;;4295204;33;20059;-80
2023/08/09 07:25:07;;;;;;;2.67;1.12;;;;;;;;;;4283007;33;20049;-80
2023/08/09 07:27:34;;;;;;;5.25;1.52;;;;;;;;;;4293622;33;20032;-80
2023/08/09 07:30:00;;;;;;;5.45;1.33;;;;;;;;;;4292642;33;20041;-80
2023/08/09 07:32:26;;;;;;;1.30;1.20;;;;;;;;;;4266197;33;20528;-78
2023/08/09 07:34:52;;;;;;;2.03;1.40;;;;;;;;;;4264454;33;20050;-79
2023/08/09 07:37:19;;;;;;;4.82;1.23;;;;;;;;;;4264528;33;20089;-80
2023/08/09 07:39:45;;;;;;;2.55;1.40;;;;;;;;;;4265477;33;20038;-80
2023/08/09 07:42:11;;;;;;;7.53;1.27;;;;;;;;;;4262802;33;20088;-80
2023/08/09 07:44:38;;;;;;;5.12;1.15;;;;;;;;;;4264920;33;20332;-80
2023/08/09 07:47:04;;;;;;;1.80;1.25;;;;;;;;;;4265519;33;20101;-80
2023/08/09 07:49:30;;;;;;;1.40;1.12;;;;;;;;;;4263292;33;20357;-81
2023/08/09 07:51:56;;;;;;;2.45;1.33;;;;;;;;;;4268045;33;20038;-79
2023/08/09 07:54:23;;;;;;;1.12;1.10;;;;;;;;;;4265942;33;20057;-80
2023/08/09 07:56:49;;;;;;;2.03;1.33;;;;;;;;;;4268504;33;20804;-80
2023/08/09 07:59:15;;;;;;;2.40;1.37;;;;;;;;;;4267100;33;20087;-79
2023/08/09 08:01:41;;;;;;;1.40;1.30;;;;;;;;;;4267300;33;20374;-79
2023/08/09 08:04:08;;;;;;;3.75;1.50;;;;;;;;;;4277784;33;20458;-80
2023/08/09 08:06:34;;;;;;;1.73;1.55;;;;;;;;;;4265282;33;20038;-81
2023/08/09 08:09:01;;;;;;;2.85;1.10;;;;;;;;;;4267495;33;20303;-81
2023/08/09 08:11:27;;;;;;;2.37;1.33;;;;;;;;;;4268223;33;20038;-80
2023/08/09 08:13:53;;;;;;;2.58;1.35;;;;;;;;;;4268517;33;20046;-79
2023/08/09 08:16:20;;;;;;;12.73;1.98;;;;;;;;;;4268991;33;20053;-81
2023/08/09 08:18:46;;;;;;;1.00;1.00;;;;;;;;;;4265482;33;20042;-81
2023/08/09 08:21:12;;;;;;;1.42;1.33;;;;;;;;;;4275823;33;20166;-80
2023/08/09 08:23:38;;;;;;;2.92;1.37;;;;;;;;;;4280746;33;20051;-82
2023/08/09 08:26:05;;;;;;;2.05;1.20;;;;;;;;;;4281373;33;20041;-80
2023/08/09 08:28:31;;;;;;;3.00;1.60;;;;;;;;;;4281362;33;20067;-81
2023/08/09 08:30:59;;;;;;;1.60;1.20;;;;;;;;;;4280698;33;20049;-82
2023/08/09 08:33:27;;;;;;;1.85;1.20;;;;;;;;;;4281860;33;20413;-80
2023/08/09 08:35:53;;;;;;;2.58;1.27;;;;;;;;;;4259056;33;20194;-82
2023/08/09 08:38:19;;;;;;;3.05;1.25;;;;;;;;;;4253944;33;20063;-80
2023/08/09 08:40:45;;;;;;;1.83;1.73;;;;;;;;;;4253693;33;20452;-82
2023/08/09 08:43:11;;;;;;;2.10;1.02;;;;;;;;;;4253124;33;20046;-80
2023/08/09 08:45:38;;;;;;;7.60;1.50;;;;;;;;;;4253308;33;20606;-80
2023/08/09 08:48:06;;;;;;;49.67;2.95;;;;;;;;;;4252584;33;20545;-80
2023/08/09 08:50:33;;;;;;;1.58;1.20;;;;;;;;;;4252926;33;20038;-80
2023/08/09 08:53:00;;;;;;;2.22;1.40;;;;;;;;;;4251127;33;20060;-84
2023/08/09 08:55:26;;;;;;;3.15;1.98;;;;;;;;;;4257472;33;20038;-81
2023/08/09 08:57:53;;;;;;;2.40;1.15;;;;;;;;;;4281921;33;20098;-80
2023/08/09 09:00:20;;;;;;;1.40;1.30;;;;;;;;;;4254811;33;20067;-81
2023/08/09 09:02:47;;;;;;;4.47;1.52;;;;;;;;;;4251892;33;20042;-80
2023/08/09 09:05:13;;;;;;;6.53;1.40;;;;;;;;;;4250685;33;20764;-81
2023/08/09 09:07:45;;;;;;;1.17;1.10;;;;;;;;;;4253730;33;20452;-80
2023/08/09 09:10:12;;;;;;;9.45;1.85;;;;;;;;;;4254135;33;20420;-80
2023/08/09 09:12:39;;;;;;;1.25;1.10;;;;;;;;;;4253472;33;20042;-80
2023/08/09 09:15:06;;;;;;;3.20;1.40;;;;;;;;;;4251708;33;20042;-81
2023/08/09 09:17:39;;;;;;;1.67;1.52;;;;;;;;;;4253790;33;20058;-81
2023/08/09 09:20:10;;;;;;;3.95;1.20;;;;;;;;;;4241038;33;20526;-81
2023/08/09 09:22:37;;;;;;;1.48;1.25;;;;;;;;;;4238195;33;20086;-80
2023/08/09 09:25:07;;;;;;;2.17;1.30;;;;;;;;;;4237985;33;20038;-82
2023/08/09 09:27:34;;;;;;;1.15;1.00;;;;;;;;;;4238303;33;20038;-80
2023/08/09 09:30:04;;;;;;;3.35;1.30;;;;;;;;;;4237919;33;20064;-80
2023/08/09 09:32:32;;;;;;;2.37;1.48;;;;;;;;;;4238104;33;20058;-82
2023/08/09 09:34:58;;;;;;;1.87;1.25;;;;;;;;;;4251480;33;20034;-81
2023/08/09 09:37:29;;;;;;;1.02;1.02;;;;;;;;;;4249367;33;20064;-80
2023/08/09 09:39:54;;;;;;;1.65;1.10;;;;;;;;;;4280619;33;20029;-80
2023/08/09 09:42:31;;;;;;;2.05;1.37;;;;;;;;;;4280247;33;20115;-80
2023/08/09 09:45:10;;;;;;;7.12;1.40;;;;;;;;;;4280065;33;20037;-82
2023/08/09 09:47:39;;;;;;;2.12;1.50;;;;;;;;;;4281362;33;20053;-81
2023/08/09 09:50:08;;;;;;;7.07;2.95;;;;;;;;;;4282189;33;20037;-81
2023/08/09 09:52:36;;;;;;;8.80;1.17;;;;;;;;;;4311527;33;20053;-80
2023/08/09 09:55:03;;;;;;;1.55;1.23;;;;;;;;;;4293976;33;20059;-79
2023/08/09 09:57:30;;;;;;;4.37;1.52;;;;;;;;;;4296184;33;20329;-80
2023/08/09 09:59:58;;;;;;;1.55;1.45;;;;;;;;;;4296019;33;20059;-79
2023/08/09 10:02:26;;;;;;;5.30;1.33;;;;;;;;;;4294455;33;20053;-81
2023/08/09 10:04:52;;;;;;;4.35;1.30;;;;;;;;;;4294364;33;20049;-81
2023/08/09 10:07:19;;;;;;;2.83;1.62;;;;;;;;;;4294768;33;20106;-81
2023/08/09 10:09:45;;;;;;;3.67;1.65;;;;;;;;;;4294907;33;20074;-82
2023/08/09 10:12:12;;;;;;;2.53;1.23;;;;;;;;;;4293869;33;20040;-80
2023/08/09 10:14:39;;;;;;;9.57;1.77;;;;;;;;;;4295371;33;20085;-82
2023/08/09 10:17:05;;;;;;;1.55;1.40;;;;;;;;;;4294153;33;20063;-83
2023/08/09 10:19:32;;;;;;;2.15;1.60;;;;;;;;;;4295501;33;20165;-80
2023/08/09 10:22:00;;;;;;;1.40;1.30;;;;;;;;;;4294342;33;20062;-81
2023/08/09 10:24:41;;;;;;;1.98;1.30;;;;;;;;;;4296252;33;20030;-81
2023/08/09 10:27:10;;;;;;;1.10;1.10;;;;;;;;;;4294068;33;20045;-81
2023/08/09 10:29:40;;;;;;;2.17;1.25;;;;;;;;;;4295510;33;20068;-80
2023/08/09 10:32:06;;;;;;;6.10;2.03;;;;;;;;;;4280346;33;20067;-81
2023/08/09 10:34:34;;;;;;;1.62;1.20;;;;;;;;;;4280818;33;20037;-81
2023/08/09 10:37:01;;;;;;;7.10;1.75;;;;;;;;;;4277979;33;20115;-82
2023/08/09 10:39:30;;;;;;;6.37;1.35;;;;;;;;;;4279425;33;20049;-80
2023/08/09 10:41:56;;;;;;;3.78;1.15;;;;;;;;;;4280775;33;20042;-81
2023/08/09 10:44:39;;;;;;;2.92;1.48;;;;;;;;;;4297609;33;20072;-81
2023/08/09 10:47:08;;;;;;;2.92;1.27;;;;;;;;;;4308890;33;20056;-81
2023/08/09 10:49:44;;;;;;;3.20;1.55;;;;;;;;;;4309764;33;20033;-81
2023/08/09 10:52:12;;;;;;;1.65;1.37;;;;;;;;;;4309914;33;20207;-81
2023/08/09 10:54:38;;;;;;;3.83;1.85;;;;;;;;;;4307900;33;20037;-86
2023/08/09 10:57:10;;;;;;;6.57;2.70;;;;;;;;;;4308883;33;20857;-81
2023/08/09 10:59:39;;;;;;;8.82;1.92;;;;;;;;;;4310250;33;20469;-80
2023/08/09 11:02:06;;;;;;;3.75;1.58;;;;;;;;;;4461322;28;20402;-80
2023/08/09 11:04:33;;;;;;;3.40;2.03;;;;;;;;;;4291879;33;20063;-86
2023/08/09 11:07:00;;;;;;;1.52;1.42;;;;;;;;;;4295465;33;20209;-82
2023/08/09 11:09:27;;;;;;;7.05;2.00;;;;;;;;;;4295994;33;20539;-80
2023/08/09 11:11:53;;;;;;;2.03;1.83;;;;;;;;;;4295564;33;20366;-81
2023/08/09 11:14:21;;;;;;;4.93;2.30;;;;;;;;;;4295078;33;20045;-80
2023/08/09 11:16:48;;;;;;;3.67;1.75;;;;;;;;;;4293955;33;20045;-80
2023/08/09 11:19:18;;;;;;;3.05;2.30;;;;;;;;;;4295376;33;20776;-81
2023/08/09 11:21:45;;;;;;;2.40;2.20;;;;;;;;;;4293958;33;20045;-82
2023/08/09 11:24:11;;;;;;;2.70;1.77;;;;;;;;;;4266001;33;20103;-81
2023/08/09 11:26:39;;;;;;;4.05;2.42;;;;;;;;;;4267246;33;20052;-85
2023/08/09 11:29:06;;;;;;;3.22;2.90;;;;;;;;;;4254110;33;20121;-81
2023/08/09 11:31:32;;;;;;;3.22;2.80;;;;;;;;;;4255725;33;20042;-81
2023/08/09 11:33:59;;;;;;;6.35;2.40;;;;;;;;;;4239908;33;20435;-80
2023/08/09 11:36:28;;;;;;;6.07;2.25;;;;;;;;;;4243825;33;20080;-80
2023/08/09 11:38:54;;;;;;;5.70;2.95;;;;;;;;;;4238255;33;20361;-81
2023/08/09 11:41:21;;;;;;;3.92;2.95;;;;;;;;;;4241032;33;20069;-78
2023/08/09 11:43:48;;;;;;;3.72;2.00;;;;;;;;;;4250329;33;20038;-80
2023/08/09 11:46:18;;;;;;;3.22;3.00;;;;;;;;;;4268104;33;20477;-79
2023/08/09 11:48:44;;;;;;;3.80;2.90;;;;;;;;;;4268074;33;20052;-87
2023/08/09 11:51:12;;;;;;;3.10;2.62;;;;;;;;;;4269606;33;20092;-83
2023/08/09 11:53:38;;;;;;;4.22;2.20;;;;;;;;;;4268337;33;20484;-82
2023/08/09 11:56:06;;;;;;;3.12;2.85;;;;;;;;;;4279935;33;20048;-81
2023/08/09 11:58:33;;;;;;;5.47;3.00;;;;;;;;;;4283627;33;20063;-81
2023/08/09 12:01:10;;;;;;;9.60;2.80;;;;;;;;;;4279932;33;20067;-81
2023/08/09 12:03:37;;;;;;;2.92;2.60;;;;;;;;;;4283336;33;20083;-80
2023/08/09 12:06:05;;;;;;;4.43;2.55;;;;;;;;;;4308689;33;20041;-82
2023/08/09 12:08:34;;;;;;;3.62;2.83;;;;;;;;;;4311296;33;20161;-80
2023/08/09 12:11:01;;;;;;;4.57;3.20;;;;;;;;;;4309620;33;20085;-80
2023/08/09 12:13:27;;;;;;;3.30;2.97;;;;;;;;;;4311867;33;20045;-82
2023/08/09 12:15:53;;;;;;;4.15;2.80;;;;;;;;;;4311924;33;20062;-82
2023/08/09 12:18:19;;;;;;;7.57;2.95;;;;;;;;;;4298149;33;20049;-82
2023/08/09 12:20:46;;;;;;;10.45;3.67;;;;;;;;;;4297113;33;20063;-86
2023/08/09 12:23:12;;;;;;;8.10;3.72;;;;;;;;;;4296009;33;20029;-83
2023/08/09 12:25:44;;;;;;;4.87;3.10;;;;;;;;;;4297458;33;20036;-82
2023/08/09 12:28:10;;;;;;;6.22;3.42;;;;;;;;;;4284425;33;20438;-82
2023/08/09 12:30:37;;;;;;;4.57;3.42;;;;;;;;;;4282267;33;20473;-82
2023/08/09 12:33:03;;;;;;;8.13;3.00;;;;;;;;;;4280138;33;20053;-88
2023/08/09 12:35:30;;;;;;;2.50;1.40;;;;;;;;;;4281545;33;20045;-82
2023/08/09 12:37:55;;;;;;;2.25;1.60;;;;;;;;;;4294407;33;20059;-84
2023/08/09 12:40:22;;;;;;;1.65;1.27;;;;;;;;;;4295348;33;20376;-83
2023/08/09 12:42:50;;;;;;;3.60;1.20;;;;;;;;;;4295794;33;20099;-82
2023/08/09 12:45:17;;;;;;;2.62;1.20;;;;;;;;;;4265385;33;20037;-85
2023/08/09 12:47:43;;;;;;;3.45;1.55;;;;;;;;;;4238183;33;20046;-82
2023/08/09 12:50:10;;;;;;;1.75;1.17;;;;;;;;;;4239468;33;20042;-82
2023/08/09 12:52:36;;;;;;;1.80;1.00;;;;;;;;;;4239057;33;20073;-80
2023/08/09 12:55:04;;;;;;;1.52;1.40;;;;;;;;;;4240109;33;20456;-80
2023/08/09 12:57:30;;;;;;;2.33;1.25;;;;;;;;;;4237698;33;20111;-88
2023/08/09 12:59:57;;;;;;;2.53;1.20;;;;;;;;;;4252252;33;20503;-80
2023/08/09 13:02:23;;;;;;;1.25;1.00;;;;;;;;;;4261532;33;20054;-81
2023/08/09 13:04:50;;;;;;;1.52;1.10;;;;;;;;;;4267924;33;20174;-80
2023/08/09 13:07:16;;;;;;;1.70;1.60;;;;;;;;;;4267915;33;20038;-81
2023/08/09 13:12:14;;;;;;;;;;;;;;;;;;4268279;33;20430;-80
2023/08/09 13:14:40;;;;;;;1.50;1.00;;;;;;;;;;4266462;33;19973;-82
2023/08/09 13:17:06;;;;;;;1.30;1.10;;;;;;;;;;4273472;33;20049;-82
2023/08/09 13:19:34;;;;;;;2.37;1.40;;;;;;;;;;4281427;33;20121;-86
2023/08/09 13:22:00;;;;;;;1.30;1.17;;;;;;;;;;4280481;33;20465;-82
2023/08/09 13:24:33;;;;;;;1.40;1.30;;;;;;;;;;4281662;33;20459;-79
2023/08/09 13:26:59;;;;;;;1.23;1.23;;;;;;;;;;4296552;33;20123;-80
2023/08/09 13:29:25;;;;;;;1.45;1.23;;;;;;;;;;4296054;33;20045;-82
2023/08/09 13:31:52;;;;;;;1.52;1.42;;;;;;;;;;4281714;33;20056;-80
2023/08/09 13:34:18;;;;;;;2.15;1.55;;;;;;;;;;4281655;33;20049;-81
2023/08/09 13:36:44;;;;;;;2.10;1.42;;;;;;;;;;4280410;33;20055;-79
2023/08/09 13:39:10;;;;;;;3.50;1.52;;;;;;;;;;4278747;33;20092;-80
2023/08/09 13:41:36;;;;;;;1.30;1.20;;;;;;;;;;4266092;33;20433;-84
2023/08/09 13:44:03;;;;;;;2.00;1.40;;;;;;;;;;4265440;33;20433;-81
2023/08/09 13:46:32;;;;;;;1.25;1.15;;;;;;;;;;4278419;33;20054;-82
2023/08/09 13:48:59;;;;;;;2.28;1.58;;;;;;;;;;4279924;33;20049;-81
2023/08/09 13:51:25;;;;;;;4.45;1.30;;;;;;;;;;4274180;33;20030;-81
2023/08/09 13:53:57;;;;;;;1.87;1.67;;;;;;;;;;4266255;33;20045;-86
2023/08/09 13:56:23;;;;;;;1.48;1.48;;;;;;;;;;4263184;33;20193;-80
2023/08/09 13:58:49;;;;;;;1.12;1.12;;;;;;;;;;4246250;33;20058;-80
2023/08/09 14:01:16;;;;;;;2.00;1.10;;;;;;;;;;4248988;33;20046;-80
2023/08/09 14:03:43;;;;;;;1.73;1.62;;;;;;;;;;4226401;33;20092;-79
2023/08/09 14:06:09;;;;;;;1.67;1.58;;;;;;;;;;4247736;33;20050;-81
2023/08/09 14:08:35;;;;;;;4.93;1.70;;;;;;;;;;4250353;33;20480;-80
2023/08/09 14:11:01;;;;;;;2.17;1.60;;;;;;;;;;4250946;33;20340;-79
2023/08/09 14:13:27;;;;;;;1.60;1.50;;;;;;;;;;4251708;33;20038;-80
2023/08/09 14:15:57;;;;;;;2.70;1.80;;;;;;;;;;4251893;33;20057;-80
2023/08/09 14:18:23;;;;;;;1.90;1.75;;;;;;;;;;4250227;33;20067;-81
2023/08/09 14:20:50;;;;;;;3.35;2.17;;;;;;;;;;4222967;34;20483;-81
2023/08/09 14:23:16;;;;;;;1.67;1.58;;;;;;;;;;4224053;34;20122;-80
2023/08/09 14:25:42;;;;;;;3.35;1.67;;;;;;;;;;4235794;33;20054;-79
2023/08/09 14:28:08;;;;;;;7.07;1.75;;;;;;;;;;4237128;33;20070;-86
2023/08/09 14:30:34;;;;;;;1.10;0.95;;;;;;;;;;4246685;33;20038;-80
2023/08/09 14:33:04;;;;;;;1.42;1.12;;;;;;;;;;4254264;33;20031;-79
2023/08/09 14:35:30;;;;;;;1.48;1.23;;;;;;;;;;4264507;33;20142;-80
2023/08/09 14:37:56;;;;;;;9.93;2.20;;;;;;;;;;4271391;33;20486;-80
2023/08/09 14:40:24;;;;;;;2.83;1.58;;;;;;;;;;4273620;33;20062;-81
2023/08/09 14:42:49;;;;;;;3.40;1.10;;;;;;;;;;4287352;33;20021;-80
2023/08/09 14:45:17;;;;;;;2.10;1.35;;;;;;;;;;4292368;33;20096;-81
2023/08/09 14:47:43;;;;;;;1.30;1.20;;;;;;;;;;4291690;33;20112;-85
2023/08/09 14:50:09;;;;;;;1.30;1.30;;;;;;;;;;4293519;33;20105;-82
2023/08/09 14:52:35;;;;;;;2.25;1.48;;;;;;;;;;4314378;33;20063;-82
2023/08/09 14:55:02;;;;;;;2.35;1.30;;;;;;;;;;4329028;33;20063;-81
2023/08/09 14:57:28;;;;;;;0.90;0.88;;;;;;;;;;4328681;33;20058;-81
2023/08/09 14:59:54;;;;;;;2.30;1.30;;;;;;;;;;4326801;33;20056;-83
2023/08/09 15:02:20;;;;;;;2.35;1.40;;;;;;;;;;4324213;33;20113;-81
2023/08/09 15:04:47;;;;;;;2.90;1.55;;;;;;;;;;4321893;33;20048;-84
2023/08/09 15:07:13;;;;;;;1.30;1.30;;;;;;;;;;4322750;33;20107;-81
2023/08/09 15:09:40;;;;;;;2.28;1.58;;;;;;;;;;4322724;33;20056;-81
2023/08/09 15:12:06;;;;;;;2.45;1.50;;;;;;;;;;4322954;33;20132;-81
2023/08/09 15:14:33;;;;;;;3.17;1.60;;;;;;;;;;4322741;33;20432;-83
2023/08/09 15:17:00;;;;;;;2.87;1.40;;;;;;;;;;4321680;33;20028;-86
2023/08/09 15:19:27;;;;;;;2.37;1.35;;;;;;;;;;4324102;33;20070;-81
2023/08/09 15:21:53;;;;;;;5.10;1.70;;;;;;;;;;4323549;33;20037;-83
2023/08/09 15:24:19;;;;;;;1.70;1.55;;;;;;;;;;4323322;33;20028;-81
2023/08/09 15:26:45;;;;;;;1.58;1.48;;;;;;;;;;4314796;33;20059;-82
2023/08/09 15:29:11;;;;;;;1.20;1.10;;;;;;;;;;4309057;33;20114;-82
2023/08/09 15:31:37;;;;;;;1.83;1.73;;;;;;;;;;4310338;33;20183;-83
2023/08/09 15:34:03;;;;;;;1.70;1.55;;;;;;;;;;4311834;33;20083;-81
2023/08/09 15:36:29;;;;;;;4.95;1.40;;;;;;;;;;4310697;33;20454;-82
2023/08/09 15:38:56;;;;;;;2.03;1.40;;;;;;;;;;4310558;33;20128;-86
2023/08/09 15:41:22;;;;;;;3.80;1.40;;;;;;;;;;4309706;33;20057;-82
2023/08/09 15:43:48;;;;;;;4.03;1.37;;;;;;;;;;4310955;33;20060;-81
2023/08/09 15:46:14;;;;;;;1.25;1.15;;;;;;;;;;4310824;33;20078;-82
2023/08/09 15:48:40;;;;;;;4.20;2.12;;;;;;;;;;4310246;33;20143;-81
2023/08/09 15:51:06;;;;;;;1.98;1.55;;;;;;;;;;4311095;33;20036;-82
2023/08/09 15:53:33;;;;;;;2.25;1.65;;;;;;;;;;4309584;33;20446;-82
2023/08/09 15:55:59;;;;;;;1.50;1.40;;;;;;;;;;4310054;33;20078;-81
2023/08/09 15:58:26;;;;;;;1.98;1.70;;;;;;;;;;4302570;33;20079;-82
2023/08/09 16:00:52;;;;;;;1.62;1.52;;;;;;;;;;4322522;33;20146;-81
2023/08/09 16:03:18;;;;;;;2.97;2.00;;;;;;;;;;4319377;33;20094;-85
2023/08/09 16:05:45;;;;;;;1.60;1.50;;;;;;;;;;4292776;33;21036;-82
2023/08/09 16:08:11;;;;;;;2.78;2.47;;;;;;;;;;4294172;33;20029;-81
2023/08/09 16:10:37;;;;;;;4.22;1.48;;;;;;;;;;4279803;33;20072;-83
2023/08/09 16:13:04;;;;;;;3.37;1.80;;;;;;;;;;4280600;33;20057;-81
2023/08/09 16:15:30;;;;;;;4.03;1.60;;;;;;;;;;4279030;33;20067;-82
2023/08/09 16:17:56;;;;;;;1.48;1.40;;;;;;;;;;4281614;33;20703;-81
2023/08/09 16:20:22;;;;;;;3.33;1.52;;;;;;;;;;4281783;33;20037;-81
2023/08/09 16:22:48;;;;;;;1.62;1.52;;;;;;;;;;4283055;33;20581;-80
2023/08/09 16:25:15;;;;;;;2.03;1.80;;;;;;;;;;4280014;33;20560;-81
2023/08/09 16:27:41;;;;;;;4.50;1.67;;;;;;;;;;4278003;33;20088;-81
2023/08/09 16:30:09;;;;;;;4.43;2.33;;;;;;;;;;4267302;33;20347;-81
2023/08/09 16:32:36;;;;;;;3.92;1.70;;;;;;;;;;4255386;33;20070;-82
2023/08/09 16:35:02;;;;;;;2.55;1.95;;;;;;;;;;4252211;33;20145;-81
2023/08/09 16:37:28;;;;;;;7.07;2.92;;;;;;;;;;4247571;33;20070;-82
2023/08/09 16:39:57;;;;;;;2.55;1.98;;;;;;;;;;4253291;33;20058;-82
2023/08/09 16:42:23;;;;;;;2.35;1.90;;;;;;;;;;4266703;33;20053;-81
2023/08/09 16:44:49;;;;;;;7.12;2.30;;;;;;;;;;4268195;33;20131;-81
2023/08/09 16:47:15;;;;;;;5.80;2.12;;;;;;;;;;4251116;33;20056;-84